Time;durP1;ratioP1;P1;durP2;ratioP2;P2;SDS_P1;SDS_P2;PMS_P1;PMS_P2;Temp;Humidity;BMP_temperature;BMP_pressure;BME280_temperature;BME280_humidity;BME280_pressure;Samples;Min_cycle;Max_cycle;Signal;HPM_P1;HPM_P2
2023/12/18 03:16:41;;;;;;;9.60;8.60;;;5.10;52.40;;;;;;21302;6545;68218;-67
2023/12/18 03:19:08;;;;;;;9.17;8.37;;;4.70;52.70;;;;;;20800;6838;119276;-67
2023/12/18 03:21:34;;;;;;;8.67;7.87;;;3.90;54.20;;;;;;20757;6848;117819;-67
2023/12/18 03:24:01;;;;;;;11.45;10.50;;;3.90;54.60;;;;;;20450;6832;302081;-67
2023/12/18 03:26:27;;;;;;;10.17;9.17;;;3.80;54.60;;;;;;20659;6883;119896;-68
2023/12/18 03:28:52;;;;;;;9.63;8.67;;;3.80;54.60;;;;;;20651;6883;117897;-67
2023/12/18 03:31:18;;;;;;;11.63;10.73;;;3.50;54.90;;;;;;20429;6883;309515;-67
2023/12/18 03:33:44;;;;;;;12.00;11.00;;;3.50;55.00;;;;;;20447;6883;310337;-67
2023/12/18 03:36:09;;;;;;;11.93;10.93;;;3.80;54.50;;;;;;20429;6883;311353;-67
2023/12/18 03:38:35;;;;;;;9.65;8.75;;;3.90;54.00;;;;;;20658;6883;117979;-66
2023/12/18 03:41:00;;;;;;;11.70;10.70;;;3.80;54.00;;;;;;20435;6883;337162;-66
2023/12/18 03:43:26;;;;;;;9.68;8.85;;;3.70;54.30;;;;;;20662;6883;119200;-65
2023/12/18 03:45:52;;;;;;;9.35;8.52;;;3.30;55.00;;;;;;20642;6883;121579;-66
2023/12/18 03:48:19;;;;;;;11.77;10.70;;;3.30;55.90;;;;;;20438;6883;282435;-67
2023/12/18 03:50:45;;;;;;;10.17;9.23;;;3.30;55.60;;;;;;20597;6899;118914;-66
2023/12/18 03:53:12;;;;;;;11.40;10.40;;;3.30;55.80;;;;;;20393;6899;309876;-67
2023/12/18 03:55:38;;;;;;;10.13;9.17;;;3.30;55.80;;;;;;20680;6869;118001;-67
2023/12/18 03:58:03;;;;;;;8.30;7.60;;;3.30;55.70;;;;;;20588;6869;118545;-67
2023/12/18 04:00:28;;;;;;;8.50;7.80;;;3.10;56.10;;;;;;20628;6889;117880;-66
2023/12/18 04:02:54;;;;;;;11.27;10.27;;;2.90;56.50;;;;;;20387;6900;341110;-67
2023/12/18 04:05:22;;;;;;;11.23;10.33;;;3.30;56.10;;;;;;20438;6880;281810;-66
2023/12/18 04:07:46;;;;;;;9.23;8.43;;;3.30;56.10;;;;;;20646;6880;119481;-68
2023/12/18 04:10:13;;;;;;;10.73;9.82;;;3.30;56.10;;;;;;20433;6880;313035;-66
2023/12/18 04:12:38;;;;;;;10.63;9.77;;;3.30;56.10;;;;;;20404;6895;310698;-66
2023/12/18 04:15:04;;;;;;;8.02;7.43;;;3.60;56.00;;;;;;20623;6895;119400;-66
2023/12/18 04:17:29;;;;;;;8.27;7.57;;;3.60;55.90;;;;;;20621;6895;118660;-66
2023/12/18 04:19:55;;;;;;;8.53;7.73;;;3.30;56.30;;;;;;20533;6912;119151;-66
2023/12/18 04:22:20;;;;;;;6.87;6.27;;;3.10;56.80;;;;;;20526;6927;117848;-67
2023/12/18 04:24:46;;;;;;;10.07;9.27;;;2.90;57.30;;;;;;20314;6927;283682;-66
2023/12/18 04:27:12;;;;;;;10.00;9.10;;;3.10;57.60;;;;;;20322;6925;284041;-66
2023/12/18 04:29:37;;;;;;;9.85;9.05;;;3.40;56.90;;;;;;20312;6926;281652;-67
2023/12/18 04:32:03;;;;;;;10.07;9.35;;;3.70;55.80;;;;;;20300;6926;299648;-67
2023/12/18 04:34:29;;;;;;;8.13;7.53;;;3.90;54.90;;;;;;20522;6926;118005;-66
2023/12/18 04:36:55;;;;;;;10.23;9.50;;;3.80;54.90;;;;;;20355;6912;281595;-66
2023/12/18 04:39:20;;;;;;;11.23;10.32;;;3.80;55.00;;;;;;20367;6912;294579;-65
2023/12/18 04:41:46;;;;;;;8.87;8.27;;;3.90;54.60;;;;;;20507;6927;118461;-67
2023/12/18 04:44:12;;;;;;;10.05;9.25;;;3.70;54.80;;;;;;20324;6922;310409;-67
2023/12/18 04:46:38;;;;;;;8.87;8.07;;;3.50;55.30;;;;;;20538;6922;117901;-65
2023/12/18 04:49:05;;;;;;;11.30;10.37;;;3.50;55.20;;;;;;20330;6922;311050;-66
2023/12/18 04:51:30;;;;;;;10.88;10.02;;;3.50;55.20;;;;;;20302;6922;310922;-68
2023/12/18 04:53:57;;;;;;;8.70;7.97;;;3.60;55.00;;;;;;20533;6920;118008;-66
2023/12/18 04:56:23;;;;;;;11.20;10.20;;;3.50;55.30;;;;;;20341;6920;309454;-66
2023/12/18 04:58:49;;;;;;;10.13;9.33;;;3.70;55.20;;;;;;20331;6920;299386;-66
2023/12/18 05:01:16;;;;;;;10.63;9.82;;;3.90;54.90;;;;;;20359;6905;339725;-65
2023/12/18 05:03:42;;;;;;;8.97;8.17;;;3.70;55.70;;;;;;20596;6905;119064;-66
2023/12/18 05:06:19;;;;;;;10.35;9.55;;;3.70;55.60;;;;;;20356;6905;343321;-65
2023/12/18 05:08:44;;;;;;;10.40;9.50;;;3.60;55.50;;;;;;20378;6905;340116;-66
2023/12/18 05:11:10;;;;;;;10.63;9.63;;;3.80;55.40;;;;;;20373;6907;281545;-65
2023/12/18 05:13:36;;;;;;;10.30;9.40;;;4.00;55.20;;;;;;20402;6892;311089;-65
2023/12/18 05:16:01;;;;;;;8.80;8.00;;;4.10;54.80;;;;;;20613;6892;119638;-65
2023/12/18 05:18:27;;;;;;;7.72;7.12;;;3.90;55.00;;;;;;20634;6892;117857;-66
2023/12/18 05:20:57;;;;;;;10.60;9.70;;;3.60;55.50;;;;;;20402;6892;311476;-66
2023/12/18 05:23:19;;;;;;;8.33;7.53;;;3.60;55.90;;;;;;20646;6892;68263;-66
2023/12/18 05:25:45;;;;;;;9.73;8.83;;;3.50;56.00;;;;;;20445;6889;311009;-65
2023/12/18 05:28:10;;;;;;;8.35;7.55;;;3.60;56.00;;;;;;20656;6889;74438;-67
2023/12/18 05:30:36;;;;;;;7.40;6.85;;;3.50;56.00;;;;;;20650;6889;68253;-65
2023/12/18 05:33:02;;;;;;;9.73;9.03;;;3.30;56.30;;;;;;20433;6889;317227;-67
2023/12/18 05:35:27;;;;;;;8.40;7.70;;;3.30;56.30;;;;;;20653;6889;68140;-66
2023/12/18 05:37:53;;;;;;;10.30;9.50;;;3.30;56.20;;;;;;20427;6888;339052;-66
2023/12/18 05:40:18;;;;;;;9.13;8.27;;;3.40;56.30;;;;;;20646;6889;68138;-67
2023/12/18 05:42:44;;;;;;;9.23;7.45;;;3.30;56.90;;;;;;20668;6889;68275;-67
2023/12/18 05:45:10;;;;;;;8.45;7.65;;;2.90;57.20;;;;;;20661;6889;68189;-65
2023/12/18 05:47:36;;;;;;;7.80;7.10;;;2.90;57.20;;;;;;20659;6889;74260;-66
2023/12/18 05:50:02;;;;;;;11.00;10.10;;;2.90;57.70;;;;;;20437;6889;310290;-66
2023/12/18 05:52:28;;;;;;;11.20;10.40;;;2.80;57.60;;;;;;20448;6889;309956;-66
2023/12/18 05:54:54;;;;;;;8.93;8.13;;;3.20;56.80;;;;;;20668;6889;68625;-66
2023/12/18 05:57:19;;;;;;;11.18;10.27;;;3.10;56.40;;;;;;20450;6889;310379;-66
2023/12/18 05:59:45;;;;;;;9.60;8.80;;;3.20;56.50;;;;;;20655;6889;69525;-65
2023/12/18 06:02:10;;;;;;;9.07;8.20;;;3.10;56.40;;;;;;20638;6889;68682;-65
2023/12/18 06:04:38;;;;;;;11.25;10.25;;;2.90;57.00;;;;;;20419;6889;309362;-65
2023/12/18 06:07:03;;;;;;;9.00;8.30;;;2.90;57.00;;;;;;20650;6889;68281;-65
2023/12/18 06:09:28;;;;;;;9.23;8.40;;;2.90;56.90;;;;;;20645;6889;68527;-65
2023/12/18 06:11:54;;;;;;;10.80;9.90;;;2.70;57.30;;;;;;20428;6889;309884;-66
2023/12/18 06:14:20;;;;;;;10.73;9.83;;;3.00;57.30;;;;;;20447;6889;289425;-66
2023/12/18 06:16:46;;;;;;;11.00;10.10;;;3.00;56.90;;;;;;20442;6889;310369;-65
2023/12/18 06:19:11;;;;;;;10.57;9.70;;;3.30;56.40;;;;;;20436;6889;309889;-66
2023/12/18 06:21:41;;;;;;;10.40;9.40;;;3.70;55.30;;;;;;20440;6889;319608;-66
2023/12/18 06:24:07;;;;;;;8.73;7.93;;;3.70;55.30;;;;;;20657;6889;69549;-66
2023/12/18 06:26:32;;;;;;;10.10;9.30;;;3.50;55.40;;;;;;20445;6889;280243;-66
2023/12/18 06:28:59;;;;;;;8.38;7.78;;;3.30;55.80;;;;;;20653;6889;68733;-66
2023/12/18 06:31:25;;;;;;;8.13;7.40;;;3.00;56.30;;;;;;20634;6889;68336;-66
2023/12/18 06:33:51;;;;;;;10.02;9.30;;;3.00;56.30;;;;;;20418;6889;310613;-66
2023/12/18 06:36:20;;;;;;;10.20;9.30;;;3.30;55.90;;;;;;20445;6889;310800;-67
2023/12/18 06:38:45;;;;;;;8.73;7.90;;;3.30;55.90;;;;;;20653;6889;74979;-67
2023/12/18 06:41:11;;;;;;;10.13;9.30;;;3.20;55.80;;;;;;20433;6889;309965;-66
2023/12/18 06:43:37;;;;;;;8.48;7.68;;;3.20;56.00;;;;;;20669;6889;68200;-66
2023/12/18 06:46:02;;;;;;;6.85;6.25;;;3.10;56.00;;;;;;20663;6889;68123;-72
2023/12/18 06:48:29;;;;;;;9.43;8.80;;;2.90;56.60;;;;;;20439;6889;329219;-66
2023/12/18 06:50:53;;;;;;;8.73;8.07;;;3.00;57.00;;;;;;20428;6887;339500;-66
2023/12/18 06:53:20;;;;;;;8.95;8.15;;;3.60;56.10;;;;;;20451;6889;310046;-68
2023/12/18 06:55:46;;;;;;;8.40;7.70;;;3.80;55.40;;;;;;20450;6889;309838;-68
2023/12/18 06:58:12;;;;;;;7.85;7.35;;;3.70;55.40;;;;;;20441;6889;310564;-67
2023/12/18 07:00:38;;;;;;;7.73;7.13;;;4.00;54.60;;;;;;20439;6889;280158;-67
2023/12/18 07:03:04;;;;;;;5.87;5.47;;;4.00;54.60;;;;;;20664;6889;68672;-68
2023/12/18 07:05:29;;;;;;;7.20;6.70;;;3.90;54.80;;;;;;20452;6889;285348;-69
2023/12/18 07:07:59;;;;;;;6.68;6.18;;;3.80;55.60;;;;;;20653;6889;68194;-69
2023/12/18 07:10:24;;;;;;;5.93;5.43;;;3.70;55.20;;;;;;20651;6889;67693;-68
2023/12/18 07:12:50;;;;;;;7.50;7.00;;;3.40;56.00;;;;;;20450;6889;282196;-69
2023/12/18 07:15:15;;;;;;;7.30;6.70;;;3.40;55.90;;;;;;20655;6889;71332;-67
2023/12/18 07:17:41;;;;;;;8.43;7.80;;;3.40;55.90;;;;;;20439;6889;333226;-68
2023/12/18 07:20:08;;;;;;;8.27;7.68;;;3.50;55.90;;;;;;20440;6889;309800;-68
2023/12/18 07:22:33;;;;;;;6.90;6.37;;;3.70;55.40;;;;;;20656;6889;75007;-69
2023/12/18 07:24:59;;;;;;;6.37;5.97;;;3.30;55.70;;;;;;20659;6889;70386;-71
2023/12/18 07:27:25;;;;;;;8.97;8.27;;;3.30;55.70;;;;;;20447;6889;297735;-71
2023/12/18 07:29:51;;;;;;;7.37;6.77;;;3.30;55.70;;;;;;20639;6889;68735;-69
2023/12/18 07:32:16;;;;;;;9.37;8.57;;;3.20;55.60;;;;;;20452;6889;279735;-69
2023/12/18 07:34:42;;;;;;;7.75;7.15;;;3.30;55.40;;;;;;20662;6889;68666;-69
2023/12/18 07:37:07;;;;;;;9.80;9.00;;;3.20;55.40;;;;;;20433;6889;342356;-68
2023/12/18 07:39:33;;;;;;;7.32;6.78;;;3.20;55.40;;;;;;20648;6889;68660;-68
2023/12/18 07:41:59;;;;;;;6.72;6.12;;;3.10;56.00;;;;;;20656;6889;67979;-69
2023/12/18 07:44:24;;;;;;;8.40;7.68;;;2.90;56.00;;;;;;20659;6889;68177;-74
2023/12/18 07:46:52;;;;;;;9.43;8.65;;;2.80;56.80;;;;;;20445;6889;340054;-68
2023/12/18 07:49:17;;;;;;;7.80;7.10;;;2.90;56.70;;;;;;20638;6889;75465;-67
2023/12/18 07:51:43;;;;;;;8.87;8.07;;;2.70;57.00;;;;;;20655;6889;71333;-69
2023/12/18 07:54:10;;;;;;;8.33;7.63;;;2.60;57.50;;;;;;20658;6889;68249;-67
2023/12/18 07:56:36;;;;;;;13.57;12.23;;;2.50;58.00;;;;;;20660;6889;68787;-69
2023/12/18 07:59:02;;;;;;;11.23;10.43;;;2.60;58.10;;;;;;20433;6889;309795;-67
2023/12/18 08:01:27;;;;;;;11.23;10.20;;;2.80;58.20;;;;;;20444;6888;282010;-67
2023/12/18 08:03:53;;;;;;;10.30;9.60;;;3.20;57.40;;;;;;20443;6889;341282;-69
2023/12/18 08:06:18;;;;;;;9.98;8.98;;;3.60;56.60;;;;;;20452;6889;309064;-68
2023/12/18 08:08:44;;;;;;;9.63;8.65;;;3.90;56.00;;;;;;20654;6889;68330;-69
2023/12/18 08:11:10;;;;;;;13.27;12.23;;;4.00;56.00;;;;;;20436;6889;310855;-68
2023/12/18 08:13:38;;;;;;;11.60;10.70;;;4.20;56.20;;;;;;20450;6889;339567;-69
2023/12/18 08:16:01;;;;;;;9.33;8.63;;;4.50;55.60;;;;;;20444;6889;339142;-69
2023/12/18 08:18:26;;;;;;;9.03;8.23;;;4.70;54.70;;;;;;20434;6889;311806;-69
2023/12/18 08:20:53;;;;;;;8.90;7.43;;;5.00;54.10;;;;;;20651;6889;68222;-74
2023/12/18 08:23:19;;;;;;;8.17;7.37;;;5.00;54.20;;;;;;20663;6889;68633;-69
2023/12/18 08:25:44;;;;;;;8.87;8.17;;;4.80;54.80;;;;;;20445;6889;313912;-68
2023/12/18 08:28:10;;;;;;;8.43;7.55;;;4.80;54.70;;;;;;20647;6889;74005;-68
2023/12/18 08:30:36;;;;;;;6.70;6.10;;;4.80;54.80;;;;;;20647;6889;67775;-69
2023/12/18 08:33:02;;;;;;;7.03;6.43;;;4.60;56.50;;;;;;20653;6889;68615;-69
2023/12/18 08:35:28;;;;;;;7.67;7.00;;;4.60;55.80;;;;;;20666;6889;68046;-69
2023/12/18 08:37:53;;;;;;;8.37;7.77;;;4.50;56.10;;;;;;20448;6889;281502;-69
2023/12/18 08:40:22;;;;;;;9.23;8.50;;;4.70;55.60;;;;;;20507;6664;307328;-68
2023/12/18 08:42:55;;;;;;;8.43;7.75;;;5.30;53.80;;;;;;20590;6778;335916;-68
2023/12/18 08:45:31;;;;;;;6.23;5.73;;;5.30;53.80;;;;;;20712;6814;117452;-68
2023/12/18 08:48:06;;;;;;;7.87;7.37;;;5.30;53.90;;;;;;20560;6791;307816;-68
2023/12/18 08:50:42;;;;;;;7.47;6.90;;;5.40;53.60;;;;;;20581;6776;309705;-68
2023/12/18 08:53:19;;;;;;;7.10;6.60;;;5.90;52.40;;;;;;20472;6791;282774;-69
2023/12/18 08:55:55;;;;;;;7.03;6.07;;;5.90;52.80;;;;;;20763;6791;118407;-69
2023/12/18 08:58:32;;;;;;;7.03;6.45;;;5.90;52.60;;;;;;20557;6783;278327;-69
2023/12/18 09:01:07;;;;;;;6.10;5.60;;;5.90;52.50;;;;;;20875;6768;119212;-68
2023/12/18 09:03:42;;;;;;;6.87;6.37;;;5.90;53.10;;;;;;20473;6760;321644;-69
2023/12/18 09:06:18;;;;;;;5.90;5.57;;;6.00;52.90;;;;;;20759;6788;117574;-68
2023/12/18 09:08:55;;;;;;;7.10;6.60;;;6.10;53.00;;;;;;20565;6780;338211;-69
2023/12/18 09:11:33;;;;;;;7.13;6.50;;;6.10;53.00;;;;;;20786;6801;120102;-69
2023/12/18 09:14:07;;;;;;;6.23;5.73;;;6.00;53.60;;;;;;20576;6797;118038;-69
2023/12/18 09:16:43;;;;;;;7.18;6.68;;;6.20;53.40;;;;;;20523;6808;337793;-68
2023/12/18 09:19:19;;;;;;;5.80;5.40;;;6.20;53.10;;;;;;20740;6791;117678;-68
2023/12/18 09:21:54;;;;;;;5.83;5.43;;;6.30;53.60;;;;;;20785;6762;118971;-70
2023/12/18 09:24:30;;;;;;;5.50;5.10;;;6.30;54.20;;;;;;20621;6784;117596;-69
2023/12/18 09:27:05;;;;;;;6.17;5.60;;;6.30;54.80;;;;;;20769;6795;117134;-69
2023/12/18 09:29:41;;;;;;;8.63;6.10;;;6.30;55.30;;;;;;20766;6785;116830;-70
2023/12/18 09:32:17;;;;;;;6.20;5.72;;;6.30;55.60;;;;;;20502;6799;336698;-69
2023/12/18 09:34:52;;;;;;;6.50;5.90;;;6.60;54.90;;;;;;20489;6804;321771;-68
2023/12/18 09:37:28;;;;;;;5.70;5.30;;;7.10;52.90;;;;;;20688;6828;117381;-69
2023/12/18 09:40:04;;;;;;;5.57;5.17;;;7.30;53.20;;;;;;20579;6786;307248;-69
2023/12/18 09:42:39;;;;;;;5.67;5.17;;;7.50;51.70;;;;;;20789;6786;116926;-69
2023/12/18 09:45:15;;;;;;;5.27;4.97;;;7.60;52.00;;;;;;20739;6790;117602;-70
2023/12/18 09:47:50;;;;;;;5.83;5.23;;;7.50;52.60;;;;;;20711;6802;117247;-69
2023/12/18 09:50:27;;;;;;;8.23;6.23;;;7.40;53.30;;;;;;20578;6779;339645;-69
2023/12/18 09:53:02;;;;;;;8.87;6.40;;;7.60;52.70;;;;;;20593;6818;117359;-69
2023/12/18 09:55:38;;;;;;;6.50;6.07;;;7.60;53.00;;;;;;20882;6789;117573;-69
2023/12/18 09:58:14;;;;;;;9.30;8.10;;;7.50;53.40;;;;;;20570;6778;307438;-69
2023/12/18 10:00:50;;;;;;;8.43;7.72;;;8.10;52.30;;;;;;20509;6797;295869;-69
2023/12/18 10:03:29;;;;;;;7.13;6.63;;;8.20;52.50;;;;;;20755;6779;118011;-69
2023/12/18 10:06:03;;;;;;;7.87;7.17;;;8.10;53.00;;;;;;20848;6756;117219;-69
2023/12/18 10:08:39;;;;;;;7.37;6.77;;;8.10;53.00;;;;;;20841;6756;117045;-70
2023/12/18 10:11:25;;;;;;;8.03;7.33;;;8.00;53.60;;;;;;20616;6777;306754;-70
2023/12/18 10:14:00;;;;;;;7.80;7.30;;;8.20;52.50;;;;;;20481;6749;309173;-71
2023/12/18 10:16:37;;;;;;;6.43;5.93;;;8.50;51.50;;;;;;20953;6745;119042;-70
2023/12/18 10:19:13;;;;;;;6.37;5.87;;;8.60;51.70;;;;;;20913;6745;118173;-69
2023/12/18 10:21:49;;;;;;;5.17;4.77;;;8.30;52.80;;;;;;20893;6755;117427;-71
2023/12/18 10:24:25;;;;;;;6.03;5.50;;;8.30;52.80;;;;;;20685;6762;117439;-70
2023/12/18 10:27:00;;;;;;;6.57;5.90;;;8.20;53.20;;;;;;20838;6767;116932;-70
2023/12/18 10:29:36;;;;;;;5.57;5.07;;;8.10;53.50;;;;;;20812;6780;118125;-70
2023/12/18 10:32:11;;;;;;;4.70;4.40;;;8.00;53.80;;;;;;20608;6767;290593;-69
2023/12/18 10:34:47;;;;;;;4.60;4.30;;;8.20;51.60;;;;;;20899;6751;116925;-69
2023/12/18 10:37:23;;;;;;;4.20;3.90;;;8.40;52.00;;;;;;20902;6762;117470;-70
2023/12/18 10:39:58;;;;;;;4.43;4.10;;;8.30;52.30;;;;;;20863;6761;116939;-71
2023/12/18 10:42:35;;;;;;;5.15;4.85;;;8.20;52.80;;;;;;20663;6761;281511;-69
2023/12/18 10:45:09;;;;;;;5.80;5.30;;;8.40;51.30;;;;;;20675;6766;307419;-69
2023/12/18 10:47:45;;;;;;;5.20;4.80;;;8.80;50.30;;;;;;20870;6757;116991;-70
2023/12/18 10:50:21;;;;;;;5.57;5.10;;;8.80;50.60;;;;;;20675;6757;306991;-70
2023/12/18 10:52:57;;;;;;;5.53;5.03;;;9.30;49.60;;;;;;20643;6757;311336;-70
2023/12/18 10:55:33;;;;;;;4.90;4.40;;;9.30;49.10;;;;;;20841;6780;118916;-70
2023/12/18 10:58:08;;;;;;;4.30;4.00;;;9.30;49.80;;;;;;20825;6766;119456;-70
2023/12/18 11:00:44;;;;;;;4.50;4.20;;;9.20;50.70;;;;;;20581;6780;307727;-69
2023/12/18 11:03:26;;;;;;;4.47;4.07;;;9.30;48.70;;;;;;20698;6796;117528;-70
2023/12/18 11:05:56;;;;;;;4.70;4.40;;;9.50;48.40;;;;;;20648;6767;337929;-70
2023/12/18 11:08:31;;;;;;;4.17;3.87;;;9.50;48.30;;;;;;20835;6766;117646;-70
2023/12/18 11:11:07;;;;;;;5.13;4.83;;;9.50;49.10;;;;;;20658;6768;306165;-71
2023/12/18 11:13:59;;;;;;;5.07;4.78;;;9.60;48.00;;;;;;20569;6753;330243;-70
2023/12/18 11:16:57;;;;;;;5.23;4.83;;;9.80;47.80;;;;;;20894;6751;117045;-71
2023/12/18 11:19:39;;;;;;;4.37;4.07;;;9.80;48.90;;;;;;20875;6753;118041;-70
2023/12/18 11:22:15;;;;;;;4.20;3.90;;;9.60;49.70;;;;;;20877;6749;116995;-70
2023/12/18 11:24:52;;;;;;;5.18;4.78;;;9.50;49.60;;;;;;20692;6749;292630;-70
2023/12/18 11:27:27;;;;;;;4.33;4.00;;;9.50;48.90;;;;;;20905;6749;118561;-70
2023/12/18 11:30:05;;;;;;;4.30;3.90;;;9.60;49.40;;;;;;20863;6749;117192;-69
2023/12/18 11:32:39;;;;;;;4.80;4.50;;;9.60;48.50;;;;;;20604;6764;324396;-72
2023/12/18 11:35:14;;;;;;;4.27;3.90;;;9.50;48.40;;;;;;20923;6751;116846;-70
2023/12/18 11:37:53;;;;;;;4.40;4.10;;;9.60;49.20;;;;;;20661;6761;308947;-70
2023/12/18 11:40:32;;;;;;;4.40;4.00;;;9.70;48.10;;;;;;20820;6779;117180;-70
2023/12/18 11:43:07;;;;;;;3.93;3.63;;;9.80;49.20;;;;;;20756;6779;117076;-69
2023/12/18 11:45:46;;;;;;;4.12;3.72;;;9.70;49.70;;;;;;20594;6784;337322;-70
2023/12/18 11:48:21;;;;;;;4.73;3.80;;;9.80;48.70;;;;;;20815;6784;118427;-70
2023/12/18 11:50:57;;;;;;;3.77;3.53;;;10.00;48.30;;;;;;20715;6805;117782;-70
2023/12/18 11:53:36;;;;;;;4.10;3.80;;;9.90;49.90;;;;;;20605;6810;119587;-70
2023/12/18 11:56:12;;;;;;;3.90;3.70;;;9.80;50.50;;;;;;20711;6807;119561;-69
2023/12/18 11:58:48;;;;;;;4.85;4.47;;;9.80;51.00;;;;;;20548;6790;309119;-69
2023/12/18 12:01:24;;;;;;;4.33;4.00;;;10.00;48.00;;;;;;20747;6801;119860;-69
2023/12/18 12:04:00;;;;;;;4.17;3.87;;;10.10;48.50;;;;;;20686;6788;119346;-70
2023/12/18 12:06:36;;;;;;;4.53;4.13;;;9.90;50.70;;;;;;20802;6792;117828;-69
2023/12/18 12:09:12;;;;;;;4.37;3.97;;;10.00;49.70;;;;;;20552;6793;279120;-70
2023/12/18 12:11:47;;;;;;;4.70;4.27;;;10.10;47.70;;;;;;20583;6797;278931;-72
2023/12/18 12:14:23;;;;;;;4.03;3.73;;;10.50;46.80;;;;;;20626;6784;118890;-69
2023/12/18 12:17:02;;;;;;;4.53;4.22;;;10.60;47.70;;;;;;20604;6784;337066;-70
2023/12/18 12:19:38;;;;;;;4.73;3.97;;;10.70;47.70;;;;;;20801;6787;117265;-70
2023/12/18 12:22:15;;;;;;;3.90;3.60;;;10.80;45.90;;;;;;20526;6787;309344;-71
2023/12/18 12:24:50;;;;;;;3.77;3.50;;;10.80;45.90;;;;;;20789;6801;117328;-70
2023/12/18 12:27:26;;;;;;;3.43;3.20;;;10.80;46.90;;;;;;20850;6777;117690;-69
2023/12/18 12:30:02;;;;;;;4.40;3.03;;;10.70;47.80;;;;;;20765;6792;117339;-69
2023/12/18 12:32:37;;;;;;;3.83;3.17;;;10.50;48.60;;;;;;20689;6806;117884;-70
2023/12/18 12:35:16;;;;;;;4.40;2.80;;;10.50;49.30;;;;;;20798;6788;118418;-70
2023/12/18 12:37:49;;;;;;;4.00;3.70;;;10.60;47.70;;;;;;20544;6783;306980;-70
2023/12/18 12:40:26;;;;;;;6.17;4.20;;;10.80;48.40;;;;;;20744;6783;118484;-69
2023/12/18 12:43:01;;;;;;;21.43;15.30;;;10.80;48.40;;;;;;20693;6783;117501;-70
2023/12/18 12:45:38;;;;;;;5.37;4.87;;;10.90;46.90;;;;;;20598;6772;307874;-70
2023/12/18 12:48:14;;;;;;;4.50;4.10;;;10.90;46.80;;;;;;20568;6781;307032;-69
2023/12/18 12:50:49;;;;;;;6.90;6.13;;;11.30;45.10;;;;;;20793;6774;119074;-69
2023/12/18 12:53:24;;;;;;;4.03;3.73;;;11.30;46.10;;;;;;20705;6780;117511;-69
2023/12/18 12:56:04;;;;;;;4.23;3.80;;;11.20;47.20;;;;;;20846;6781;120843;-69
2023/12/18 12:58:37;;;;;;;4.00;3.60;;;11.10;47.90;;;;;;20833;6781;117435;-69
2023/12/18 13:01:12;;;;;;;4.33;3.40;;;11.00;48.40;;;;;;20746;6801;117238;-69
2023/12/18 13:03:50;;;;;;;4.78;4.00;;;10.90;49.00;;;;;;20487;6784;339726;-71
2023/12/18 13:06:24;;;;;;;3.70;3.50;;;11.10;46.20;;;;;;20832;6769;117481;-69
2023/12/18 13:09:04;;;;;;;5.67;3.43;;;11.20;46.90;;;;;;20775;6786;117374;-69
2023/12/18 13:11:38;;;;;;;4.27;3.97;;;11.10;47.60;;;;;;20578;6785;309600;-69
2023/12/18 13:14:13;;;;;;;4.93;4.40;;;11.30;46.70;;;;;;20645;6787;119781;-69
2023/12/18 13:16:48;;;;;;;4.30;4.00;;;11.30;46.60;;;;;;20790;6785;119148;-69
2023/12/18 13:19:24;;;;;;;4.72;4.32;;;11.20;47.40;;;;;;20537;6786;308360;-69
2023/12/18 13:22:02;;;;;;;5.77;3.93;;;11.30;46.20;;;;;;20733;6789;117436;-69
2023/12/18 13:24:37;;;;;;;6.40;4.20;;;11.30;46.90;;;;;;20587;6845;117605;-70
2023/12/18 13:27:13;;;;;;;6.33;4.10;;;11.20;47.70;;;;;;20770;6798;117953;-70
2023/12/18 13:29:49;;;;;;;5.33;4.13;;;11.10;48.30;;;;;;20692;6795;119053;-70
2023/12/18 13:32:25;;;;;;;6.12;4.25;;;11.00;48.90;;;;;;20508;6801;337522;-70
2023/12/18 13:35:01;;;;;;;6.57;5.12;;;11.20;47.00;;;;;;20494;6802;279879;-68
2023/12/18 13:37:37;;;;;;;6.40;5.30;;;11.50;45.90;;;;;;20803;6788;117442;-69
2023/12/18 13:40:13;;;;;;;4.83;4.43;;;11.60;46.90;;;;;;20653;6785;122440;-69
2023/12/18 13:42:48;;;;;;;5.57;4.78;;;11.40;47.70;;;;;;20550;6761;340001;-69
2023/12/18 13:45:29;;;;;;;5.83;4.03;;;11.50;46.50;;;;;;20451;6791;118099;-69
2023/12/18 13:48:01;;;;;;;6.37;4.70;;;11.50;47.20;;;;;;20515;6828;307583;-70
2023/12/18 13:50:38;;;;;;;5.78;5.20;;;11.60;44.90;;;;;;20599;6766;337588;-70
2023/12/18 13:53:13;;;;;;;4.60;4.30;;;11.90;45.30;;;;;;20723;6769;120147;-69
2023/12/18 13:55:49;;;;;;;5.20;4.80;;;11.90;44.00;;;;;;20604;6775;307276;-69
2023/12/18 13:58:25;;;;;;;5.43;4.30;;;11.90;43.90;;;;;;20766;6778;119226;-68
2023/12/18 14:01:00;;;;;;;5.75;5.35;;;11.90;45.10;;;;;;20597;6764;340488;-69
2023/12/18 14:03:36;;;;;;;8.10;6.00;;;11.90;44.40;;;;;;20496;6781;279635;-69
2023/12/18 14:06:12;;;;;;;5.47;4.00;;;12.10;43.20;;;;;;20745;6789;118817;-69
2023/12/18 14:08:48;;;;;;;5.10;4.17;;;11.80;45.30;;;;;;20723;6801;117341;-69
2023/12/18 14:11:24;;;;;;;4.70;4.30;;;11.80;45.30;;;;;;20679;6802;118514;-68
2023/12/18 14:14:00;;;;;;;4.93;4.47;;;11.60;46.10;;;;;;20367;6802;311384;-68
2023/12/18 14:16:36;;;;;;;5.10;4.60;;;11.70;44.00;;;;;;20720;6804;118709;-68
2023/12/18 14:19:12;;;;;;;4.20;3.90;;;11.50;46.60;;;;;;20722;6799;117406;-69
2023/12/18 14:21:48;;;;;;;6.72;4.37;;;11.50;45.80;;;;;;20439;6815;310048;-70
2023/12/18 14:24:23;;;;;;;4.47;4.17;;;11.60;44.60;;;;;;20544;6811;119312;-70
2023/12/18 14:26:59;;;;;;;4.70;4.30;;;11.60;45.50;;;;;;20646;6835;118497;-69
2023/12/18 14:29:34;;;;;;;5.00;4.60;;;11.40;46.30;;;;;;20509;6801;339801;-69
2023/12/18 14:32:10;;;;;;;5.80;5.20;;;11.50;44.30;;;;;;20476;6803;309758;-70
2023/12/18 14:34:46;;;;;;;6.73;4.67;;;11.70;44.50;;;;;;20705;6802;118695;-70
2023/12/18 14:37:22;;;;;;;4.37;4.07;;;11.70;44.40;;;;;;20784;6790;116500;-70
2023/12/18 14:39:59;;;;;;;4.50;4.10;;;11.40;45.50;;;;;;20765;6674;118912;-67
2023/12/18 14:42:34;;;;;;;6.28;5.75;;;11.20;45.40;;;;;;20501;6796;282254;-67
2023/12/18 14:45:10;;;;;;;7.30;6.70;;;11.40;45.00;;;;;;20539;6790;308708;-67
2023/12/18 14:47:49;;;;;;;9.13;7.80;;;11.40;45.00;;;;;;20545;6799;309424;-67
2023/12/18 14:50:23;;;;;;;7.10;6.50;;;11.60;44.90;;;;;;20771;6783;119426;-66
2023/12/18 14:52:59;;;;;;;7.00;6.40;;;11.40;45.80;;;;;;20463;6802;281647;-68
2023/12/18 14:55:34;;;;;;;6.55;6.07;;;11.30;45.60;;;;;;20546;6787;305853;-68
2023/12/18 14:58:10;;;;;;;6.70;4.73;;;11.50;45.60;;;;;;20769;6784;118229;-66
2023/12/18 15:00:46;;;;;;;5.97;4.97;;;11.30;46.40;;;;;;20776;6784;118369;-66
2023/12/18 15:03:21;;;;;;;5.77;5.27;;;10.80;47.10;;;;;;20693;6796;118106;-67
2023/12/18 15:05:58;;;;;;;6.03;5.53;;;10.10;48.70;;;;;;20807;6781;117584;-67
2023/12/18 15:08:33;;;;;;;7.35;6.68;;;10.00;48.60;;;;;;20592;6781;337690;-66
2023/12/18 15:11:10;;;;;;;6.77;6.17;;;9.90;50.10;;;;;;20749;6794;68045;-66
2023/12/18 15:13:45;;;;;;;5.73;5.23;;;9.90;50.00;;;;;;20629;6810;73316;-70
2023/12/18 15:16:21;;;;;;;7.00;6.35;;;9.60;50.60;;;;;;20548;6812;340912;-66
2023/12/18 15:18:57;;;;;;;6.65;6.03;;;9.70;50.70;;;;;;20574;6803;278777;-66
2023/12/18 15:21:32;;;;;;;5.90;5.20;;;9.90;50.10;;;;;;20799;6795;73098;-67
2023/12/18 15:24:09;;;;;;;6.70;6.12;;;9.70;50.10;;;;;;20447;6790;340566;-66
2023/12/18 15:26:45;;;;;;;5.60;5.20;;;9.70;50.10;;;;;;20695;6814;70001;-66
2023/12/18 15:29:20;;;;;;;6.82;6.20;;;9.50;50.60;;;;;;20554;6806;337390;-67
2023/12/18 15:31:55;;;;;;;6.17;5.70;;;9.50;50.60;;;;;;20747;6812;67662;-66
2023/12/18 15:34:31;;;;;;;7.50;6.90;;;9.20;50.80;;;;;;20375;6808;339706;-67
2023/12/18 15:37:07;;;;;;;7.20;6.70;;;9.30;50.80;;;;;;20588;6799;279107;-67
2023/12/18 15:39:44;;;;;;;7.70;6.90;;;9.40;50.20;;;;;;20743;6811;68241;-66
2023/12/18 15:42:18;;;;;;;6.83;5.87;;;9.20;50.50;;;;;;20691;6814;68530;-67
2023/12/18 15:44:54;;;;;;;5.93;5.30;;;8.50;51.90;;;;;;20736;6796;70302;-66
2023/12/18 15:47:30;;;;;;;5.97;5.43;;;8.50;52.50;;;;;;20780;6796;67593;-67
2023/12/18 15:50:09;;;;;;;7.93;7.25;;;8.20;52.40;;;;;;20579;6783;309468;-66
2023/12/18 15:52:46;;;;;;;7.37;6.70;;;8.30;52.20;;;;;;20667;6798;68428;-66
2023/12/18 15:55:19;;;;;;;8.40;7.70;;;8.30;52.40;;;;;;20603;6774;280993;-66
2023/12/18 15:57:54;;;;;;;9.60;8.70;;;8.40;52.30;;;;;;20588;6789;307248;-67
2023/12/18 16:00:30;;;;;;;10.00;9.00;;;8.60;51.70;;;;;;20602;6787;308998;-67
2023/12/18 16:03:06;;;;;;;10.90;9.83;;;8.60;51.40;;;;;;20686;6799;68679;-67
2023/12/18 16:05:43;;;;;;;12.60;11.20;;;8.50;51.40;;;;;;20554;6810;308070;-67
2023/12/18 16:08:18;;;;;;;14.30;12.90;;;8.50;51.40;;;;;;20504;6807;310649;-68
2023/12/18 16:10:54;;;;;;;10.20;9.30;;;8.70;51.80;;;;;;20706;6810;67553;-67
2023/12/18 16:13:30;;;;;;;9.40;8.60;;;8.50;51.60;;;;;;20686;6793;70638;-68
2023/12/18 16:16:06;;;;;;;10.83;8.13;;;7.80;52.70;;;;;;20869;6778;70811;-68
2023/12/18 16:18:42;;;;;;;8.07;7.37;;;7.80;52.70;;;;;;20807;6798;69693;-68
2023/12/18 16:21:21;;;;;;;8.27;7.53;;;7.50;53.20;;;;;;20542;6798;284497;-68